<?xml version="1.0" encoding="UTF-8" standalone="no" ?>
<gpx xmlns="http://www.topografix.com/GPX/1/1" xmlns:xsi="http://www.w3.org/2001/XMLSchema-instance" xsi:schemaLocation="http://www.topografix.com/GPX/1/1 http://www.topografix.com/GPX/1/1/gpx.xsd" version="1.1" creator="VisuGPX - https://www.visugpx.com">
  <metadata>
    <name>12675549-la combe d'été 33 kms</name>
    <desc><![CDATA[parcours non testé]]></desc>
  </metadata>
  <trk>
    <name><![CDATA[12675549-la combe d'été 33 kms]]></name>
    <trkseg>
      <trkpt lat="46.99315" lon="4.69211">
        <ele>532</ele>
        <time>2021-03-12T19:38:43Z</time>
      </trkpt>
      <trkpt lat="46.99366" lon="4.69137">
        <ele>533</ele>
        <time>2021-03-12T19:40:19Z</time>
      </trkpt>
      <trkpt lat="46.99438" lon="4.69023">
        <ele>531</ele>
        <time>2021-03-12T19:42:40Z</time>
      </trkpt>
      <trkpt lat="46.99544" lon="4.68882">
        <ele>530</ele>
        <time>2021-03-12T19:45:51Z</time>
      </trkpt>
      <trkpt lat="46.99616" lon="4.68722">
        <ele>528</ele>
        <time>2021-03-12T19:48:46Z</time>
      </trkpt>
      <trkpt lat="46.99679" lon="4.68617">
        <ele>526</ele>
        <time>2021-03-12T19:50:53Z</time>
      </trkpt>
      <trkpt lat="46.99804" lon="4.68508">
        <ele>526</ele>
        <time>2021-03-12T19:54:07Z</time>
      </trkpt>
      <trkpt lat="46.99948" lon="4.68396">
        <ele>521</ele>
        <time>2021-03-12T19:57:45Z</time>
      </trkpt>
      <trkpt lat="46.99813" lon="4.67712">
        <ele>533</ele>
        <time>2021-03-12T20:08:33Z</time>
      </trkpt>
      <trkpt lat="46.99753" lon="4.66936">
        <ele>546</ele>
        <time>2021-03-12T20:20:23Z</time>
      </trkpt>
      <trkpt lat="47.00601" lon="4.67146">
        <ele>542</ele>
        <time>2021-03-12T20:39:31Z</time>
      </trkpt>
      <trkpt lat="47.00745" lon="4.67077">
        <ele>533</ele>
        <time>2021-03-12T20:42:53Z</time>
      </trkpt>
      <trkpt lat="47.00864" lon="4.6704">
        <ele>532</ele>
        <time>2021-03-12T20:45:36Z</time>
      </trkpt>
      <trkpt lat="47.00957" lon="4.67019">
        <ele>532</ele>
        <time>2021-03-12T20:47:41Z</time>
      </trkpt>
      <trkpt lat="47.01042" lon="4.6702">
        <ele>529</ele>
        <time>2021-03-12T20:49:35Z</time>
      </trkpt>
      <trkpt lat="47.01079" lon="4.67019">
        <ele>527</ele>
        <time>2021-03-12T20:50:24Z</time>
      </trkpt>
      <trkpt lat="47.01137" lon="4.67052">
        <ele>526</ele>
        <time>2021-03-12T20:51:47Z</time>
      </trkpt>
      <trkpt lat="47.01225" lon="4.67048">
        <ele>525</ele>
        <time>2021-03-12T20:53:44Z</time>
      </trkpt>
      <trkpt lat="47.01272" lon="4.67058">
        <ele>525</ele>
        <time>2021-03-12T20:54:48Z</time>
      </trkpt>
      <trkpt lat="47.01334" lon="4.6706">
        <ele>526</ele>
        <time>2021-03-12T20:56:11Z</time>
      </trkpt>
      <trkpt lat="47.01428" lon="4.6704">
        <ele>528</ele>
        <time>2021-03-12T20:58:17Z</time>
      </trkpt>
      <trkpt lat="47.01557" lon="4.66974">
        <ele>528</ele>
        <time>2021-03-12T21:01:20Z</time>
      </trkpt>
      <trkpt lat="47.01699" lon="4.66938">
        <ele>527</ele>
        <time>2021-03-12T21:04:32Z</time>
      </trkpt>
      <trkpt lat="47.01735" lon="4.66914">
        <ele>525</ele>
        <time>2021-03-12T21:05:25Z</time>
      </trkpt>
      <trkpt lat="47.01777" lon="4.66926">
        <ele>525</ele>
        <time>2021-03-12T21:06:22Z</time>
      </trkpt>
      <trkpt lat="47.0183" lon="4.66916">
        <ele>522</ele>
        <time>2021-03-12T21:07:33Z</time>
      </trkpt>
      <trkpt lat="47.01922" lon="4.66879">
        <ele>521</ele>
        <time>2021-03-12T21:09:40Z</time>
      </trkpt>
      <trkpt lat="47.01968" lon="4.66848">
        <ele>518</ele>
        <time>2021-03-12T21:10:48Z</time>
      </trkpt>
      <trkpt lat="47.02026" lon="4.6678">
        <ele>514</ele>
        <time>2021-03-12T21:12:27Z</time>
      </trkpt>
      <trkpt lat="47.02125" lon="4.66731">
        <ele>510</ele>
        <time>2021-03-12T21:14:46Z</time>
      </trkpt>
      <trkpt lat="47.02184" lon="4.66679">
        <ele>507</ele>
        <time>2021-03-12T21:16:18Z</time>
      </trkpt>
      <trkpt lat="47.02249" lon="4.66612">
        <ele>501</ele>
        <time>2021-03-12T21:18:04Z</time>
      </trkpt>
      <trkpt lat="47.02312" lon="4.66603">
        <ele>499</ele>
        <time>2021-03-12T21:19:29Z</time>
      </trkpt>
      <trkpt lat="47.02364" lon="4.66618">
        <ele>498</ele>
        <time>2021-03-12T21:20:40Z</time>
      </trkpt>
      <trkpt lat="47.02409" lon="4.66605">
        <ele>497</ele>
        <time>2021-03-12T21:21:41Z</time>
      </trkpt>
      <trkpt lat="47.02521" lon="4.66705">
        <ele>496</ele>
        <time>2021-03-12T21:24:36Z</time>
      </trkpt>
      <trkpt lat="47.02585" lon="4.66789">
        <ele>496</ele>
        <time>2021-03-12T21:26:30Z</time>
      </trkpt>
      <trkpt lat="47.02642" lon="4.66892">
        <ele>494</ele>
        <time>2021-03-12T21:28:31Z</time>
      </trkpt>
      <trkpt lat="47.02692" lon="4.6694">
        <ele>492</ele>
        <time>2021-03-12T21:29:51Z</time>
      </trkpt>
      <trkpt lat="47.02783" lon="4.66906">
        <ele>494</ele>
        <time>2021-03-12T21:31:56Z</time>
      </trkpt>
      <trkpt lat="47.029" lon="4.6701">
        <ele>505</ele>
        <time>2021-03-12T21:34:59Z</time>
      </trkpt>
      <trkpt lat="47.02938" lon="4.66996">
        <ele>508</ele>
        <time>2021-03-12T21:35:51Z</time>
      </trkpt>
      <trkpt lat="47.02977" lon="4.67001">
        <ele>511</ele>
        <time>2021-03-12T21:36:43Z</time>
      </trkpt>
      <trkpt lat="47.03039" lon="4.67021">
        <ele>513</ele>
        <time>2021-03-12T21:38:08Z</time>
      </trkpt>
      <trkpt lat="47.03124" lon="4.6701">
        <ele>519</ele>
        <time>2021-03-12T21:40:02Z</time>
      </trkpt>
      <trkpt lat="47.03202" lon="4.66973">
        <ele>525</ele>
        <time>2021-03-12T21:41:51Z</time>
      </trkpt>
      <trkpt lat="47.03343" lon="4.67">
        <ele>527</ele>
        <time>2021-03-12T21:45:01Z</time>
      </trkpt>
      <trkpt lat="47.03443" lon="4.67039">
        <ele>530</ele>
        <time>2021-03-12T21:47:19Z</time>
      </trkpt>
      <trkpt lat="47.03509" lon="4.67033">
        <ele>530</ele>
        <time>2021-03-12T21:48:47Z</time>
      </trkpt>
      <trkpt lat="47.03545" lon="4.67012">
        <ele>528</ele>
        <time>2021-03-12T21:49:39Z</time>
      </trkpt>
      <trkpt lat="47.03621" lon="4.66989">
        <ele>524</ele>
        <time>2021-03-12T21:51:22Z</time>
      </trkpt>
      <trkpt lat="47.03695" lon="4.66935">
        <ele>520</ele>
        <time>2021-03-12T21:53:13Z</time>
      </trkpt>
      <trkpt lat="47.03767" lon="4.66879">
        <ele>519</ele>
        <time>2021-03-12T21:55:01Z</time>
      </trkpt>
      <trkpt lat="47.03873" lon="4.66888">
        <ele>519</ele>
        <time>2021-03-12T21:57:23Z</time>
      </trkpt>
      <trkpt lat="47.03931" lon="4.66899">
        <ele>520</ele>
        <time>2021-03-12T21:58:41Z</time>
      </trkpt>
      <trkpt lat="47.04058" lon="4.66933">
        <ele>522</ele>
        <time>2021-03-12T22:01:33Z</time>
      </trkpt>
      <trkpt lat="47.04152" lon="4.66936">
        <ele>525</ele>
        <time>2021-03-12T22:03:39Z</time>
      </trkpt>
      <trkpt lat="47.04202" lon="4.66908">
        <ele>527</ele>
        <time>2021-03-12T22:04:50Z</time>
      </trkpt>
      <trkpt lat="47.04277" lon="4.66892">
        <ele>528</ele>
        <time>2021-03-12T22:06:31Z</time>
      </trkpt>
      <trkpt lat="47.04517" lon="4.66213">
        <ele>540</ele>
        <time>2021-03-12T22:18:07Z</time>
      </trkpt>
      <trkpt lat="47.04588" lon="4.66244">
        <ele>540</ele>
        <time>2021-03-12T22:19:46Z</time>
      </trkpt>
      <trkpt lat="47.04698" lon="4.66213">
        <ele>534</ele>
        <time>2021-03-12T22:22:15Z</time>
      </trkpt>
      <trkpt lat="47.04724" lon="4.66175">
        <ele>531</ele>
        <time>2021-03-12T22:23:04Z</time>
      </trkpt>
      <trkpt lat="47.0474" lon="4.66122">
        <ele>532</ele>
        <time>2021-03-12T22:23:57Z</time>
      </trkpt>
      <trkpt lat="47.0478" lon="4.66101">
        <ele>532</ele>
        <time>2021-03-12T22:24:54Z</time>
      </trkpt>
      <trkpt lat="47.04913" lon="4.66101">
        <ele>525</ele>
        <time>2021-03-12T22:27:51Z</time>
      </trkpt>
      <trkpt lat="47.04993" lon="4.66125">
        <ele>523</ele>
        <time>2021-03-12T22:29:40Z</time>
      </trkpt>
      <trkpt lat="47.05053" lon="4.66106">
        <ele>525</ele>
        <time>2021-03-12T22:31:02Z</time>
      </trkpt>
      <trkpt lat="47.05122" lon="4.66066">
        <ele>527</ele>
        <time>2021-03-12T22:32:41Z</time>
      </trkpt>
      <trkpt lat="47.05192" lon="4.6603">
        <ele>529</ele>
        <time>2021-03-12T22:34:20Z</time>
      </trkpt>
      <trkpt lat="47.05317" lon="4.65947">
        <ele>531</ele>
        <time>2021-03-12T22:37:23Z</time>
      </trkpt>
      <trkpt lat="47.05404" lon="4.65864">
        <ele>535</ele>
        <time>2021-03-12T22:39:42Z</time>
      </trkpt>
      <trkpt lat="47.05491" lon="4.65778">
        <ele>535</ele>
        <time>2021-03-12T22:42:02Z</time>
      </trkpt>
      <trkpt lat="47.05562" lon="4.65755">
        <ele>532</ele>
        <time>2021-03-12T22:43:39Z</time>
      </trkpt>
      <trkpt lat="47.058" lon="4.66009">
        <ele>524</ele>
        <time>2021-03-12T22:50:11Z</time>
      </trkpt>
      <trkpt lat="47.05765" lon="4.66094">
        <ele>528</ele>
        <time>2021-03-12T22:51:42Z</time>
      </trkpt>
      <trkpt lat="47.05749" lon="4.66161">
        <ele>527</ele>
        <time>2021-03-12T22:52:46Z</time>
      </trkpt>
      <trkpt lat="47.05721" lon="4.66204">
        <ele>524</ele>
        <time>2021-03-12T22:53:40Z</time>
      </trkpt>
      <trkpt lat="47.05679" lon="4.66249">
        <ele>519</ele>
        <time>2021-03-12T22:54:50Z</time>
      </trkpt>
      <trkpt lat="47.05643" lon="4.66319">
        <ele>512</ele>
        <time>2021-03-12T22:56:09Z</time>
      </trkpt>
      <trkpt lat="47.05604" lon="4.66406">
        <ele>505</ele>
        <time>2021-03-12T22:57:44Z</time>
      </trkpt>
      <trkpt lat="47.05574" lon="4.66497">
        <ele>498</ele>
        <time>2021-03-12T22:59:16Z</time>
      </trkpt>
      <trkpt lat="47.05562" lon="4.66529">
        <ele>496</ele>
        <time>2021-03-12T22:59:49Z</time>
      </trkpt>
      <trkpt lat="47.05585" lon="4.66545">
        <ele>496</ele>
        <time>2021-03-12T23:00:23Z</time>
      </trkpt>
      <trkpt lat="47.05613" lon="4.66558">
        <ele>495</ele>
        <time>2021-03-12T23:01:02Z</time>
      </trkpt>
      <trkpt lat="47.05702" lon="4.66541">
        <ele>498</ele>
        <time>2021-03-12T23:03:02Z</time>
      </trkpt>
      <trkpt lat="47.05777" lon="4.66591">
        <ele>494</ele>
        <time>2021-03-12T23:04:52Z</time>
      </trkpt>
      <trkpt lat="47.05875" lon="4.66635">
        <ele>495</ele>
        <time>2021-03-12T23:07:09Z</time>
      </trkpt>
      <trkpt lat="47.05904" lon="4.66602">
        <ele>497</ele>
        <time>2021-03-12T23:07:58Z</time>
      </trkpt>
      <trkpt lat="47.05937" lon="4.66544">
        <ele>500</ele>
        <time>2021-03-12T23:09:06Z</time>
      </trkpt>
      <trkpt lat="47.05974" lon="4.66455">
        <ele>504</ele>
        <time>2021-03-12T23:10:41Z</time>
      </trkpt>
      <trkpt lat="47.05986" lon="4.66429">
        <ele>505</ele>
        <time>2021-03-12T23:11:10Z</time>
      </trkpt>
      <trkpt lat="47.05999" lon="4.66363">
        <ele>508</ele>
        <time>2021-03-12T23:12:12Z</time>
      </trkpt>
      <trkpt lat="47.0602" lon="4.66314">
        <ele>510</ele>
        <time>2021-03-12T23:13:05Z</time>
      </trkpt>
      <trkpt lat="47.06056" lon="4.66232">
        <ele>513</ele>
        <time>2021-03-12T23:14:34Z</time>
      </trkpt>
      <trkpt lat="47.06071" lon="4.662">
        <ele>513</ele>
        <time>2021-03-12T23:15:09Z</time>
      </trkpt>
      <trkpt lat="47.06082" lon="4.66148">
        <ele>513</ele>
        <time>2021-03-12T23:15:58Z</time>
      </trkpt>
      <trkpt lat="47.061" lon="4.66183">
        <ele>511</ele>
        <time>2021-03-12T23:16:38Z</time>
      </trkpt>
      <trkpt lat="47.06112" lon="4.66231">
        <ele>509</ele>
        <time>2021-03-12T23:17:25Z</time>
      </trkpt>
      <trkpt lat="47.06126" lon="4.66303">
        <ele>507</ele>
        <time>2021-03-12T23:18:33Z</time>
      </trkpt>
      <trkpt lat="47.06126" lon="4.66367">
        <ele>506</ele>
        <time>2021-03-12T23:19:31Z</time>
      </trkpt>
      <trkpt lat="47.06133" lon="4.66404">
        <ele>505</ele>
        <time>2021-03-12T23:20:06Z</time>
      </trkpt>
      <trkpt lat="47.06151" lon="4.66448">
        <ele>505</ele>
        <time>2021-03-12T23:20:53Z</time>
      </trkpt>
      <trkpt lat="47.06183" lon="4.66479">
        <ele>506</ele>
        <time>2021-03-12T23:21:44Z</time>
      </trkpt>
      <trkpt lat="47.06189" lon="4.66518">
        <ele>506</ele>
        <time>2021-03-12T23:22:20Z</time>
      </trkpt>
      <trkpt lat="47.06204" lon="4.66538">
        <ele>505</ele>
        <time>2021-03-12T23:22:47Z</time>
      </trkpt>
      <trkpt lat="47.06338" lon="4.66592">
        <ele>505</ele>
        <time>2021-03-12T23:25:52Z</time>
      </trkpt>
      <trkpt lat="47.06435" lon="4.66687">
        <ele>500</ele>
        <time>2021-03-12T23:28:28Z</time>
      </trkpt>
      <trkpt lat="47.06519" lon="4.66843">
        <ele>494</ele>
        <time>2021-03-12T23:31:29Z</time>
      </trkpt>
      <trkpt lat="47.06619" lon="4.67071">
        <ele>486</ele>
        <time>2021-03-12T23:35:35Z</time>
      </trkpt>
      <trkpt lat="47.06746" lon="4.67144">
        <ele>485</ele>
        <time>2021-03-12T23:38:37Z</time>
      </trkpt>
      <trkpt lat="47.06854" lon="4.66942">
        <ele>482</ele>
        <time>2021-03-12T23:42:31Z</time>
      </trkpt>
      <trkpt lat="47.06887" lon="4.66827">
        <ele>481</ele>
        <time>2021-03-12T23:44:24Z</time>
      </trkpt>
      <trkpt lat="47.07133" lon="4.66572">
        <ele>492</ele>
        <time>2021-03-12T23:51:06Z</time>
      </trkpt>
      <trkpt lat="47.07292" lon="4.66646">
        <ele>491</ele>
        <time>2021-03-12T23:54:49Z</time>
      </trkpt>
      <trkpt lat="47.0742" lon="4.6661">
        <ele>489</ele>
        <time>2021-03-12T23:57:43Z</time>
      </trkpt>
      <trkpt lat="47.07611" lon="4.66633">
        <ele>477</ele>
        <time>2021-03-13T00:01:58Z</time>
      </trkpt>
      <trkpt lat="47.07851" lon="4.66896">
        <ele>469</ele>
        <time>2021-03-13T00:08:38Z</time>
      </trkpt>
      <trkpt lat="47.07912" lon="4.67013">
        <ele>457</ele>
        <time>2021-03-13T00:10:52Z</time>
      </trkpt>
      <trkpt lat="47.07926" lon="4.67144">
        <ele>447</ele>
        <time>2021-03-13T00:12:52Z</time>
      </trkpt>
      <trkpt lat="47.07874" lon="4.67309">
        <ele>432</ele>
        <time>2021-03-13T00:15:38Z</time>
      </trkpt>
      <trkpt lat="47.07865" lon="4.67764">
        <ele>380</ele>
        <time>2021-03-13T00:22:31Z</time>
      </trkpt>
      <trkpt lat="47.07886" lon="4.67861">
        <ele>392</ele>
        <time>2021-03-13T00:24:04Z</time>
      </trkpt>
      <trkpt lat="47.07764" lon="4.67922">
        <ele>389</ele>
        <time>2021-03-13T00:26:56Z</time>
      </trkpt>
      <trkpt lat="47.07559" lon="4.67955">
        <ele>399</ele>
        <time>2021-03-13T00:31:31Z</time>
      </trkpt>
      <trkpt lat="47.07403" lon="4.68027">
        <ele>398</ele>
        <time>2021-03-13T00:35:09Z</time>
      </trkpt>
      <trkpt lat="47.07319" lon="4.68164">
        <ele>401</ele>
        <time>2021-03-13T00:37:57Z</time>
      </trkpt>
      <trkpt lat="47.07248" lon="4.683">
        <ele>403</ele>
        <time>2021-03-13T00:40:32Z</time>
      </trkpt>
      <trkpt lat="47.07149" lon="4.68361">
        <ele>409</ele>
        <time>2021-03-13T00:42:56Z</time>
      </trkpt>
      <trkpt lat="47.07059" lon="4.68251">
        <ele>435</ele>
        <time>2021-03-13T00:45:32Z</time>
      </trkpt>
      <trkpt lat="47.06986" lon="4.6822">
        <ele>444</ele>
        <time>2021-03-13T00:47:13Z</time>
      </trkpt>
      <trkpt lat="47.06748" lon="4.67871">
        <ele>457</ele>
        <time>2021-03-13T00:54:42Z</time>
      </trkpt>
      <trkpt lat="47.06685" lon="4.6796">
        <ele>452</ele>
        <time>2021-03-13T00:56:39Z</time>
      </trkpt>
      <trkpt lat="47.0665" lon="4.67873">
        <ele>454</ele>
        <time>2021-03-13T00:58:11Z</time>
      </trkpt>
      <trkpt lat="47.06577" lon="4.67871">
        <ele>455</ele>
        <time>2021-03-13T00:59:48Z</time>
      </trkpt>
      <trkpt lat="47.06443" lon="4.67685">
        <ele>461</ele>
        <time>2021-03-13T01:03:54Z</time>
      </trkpt>
      <trkpt lat="47.06329" lon="4.68006">
        <ele>461</ele>
        <time>2021-03-13T01:09:23Z</time>
      </trkpt>
      <trkpt lat="47.06299" lon="4.68208">
        <ele>459</ele>
        <time>2021-03-13T01:12:31Z</time>
      </trkpt>
      <trkpt lat="47.06219" lon="4.68312">
        <ele>460</ele>
        <time>2021-03-13T01:14:54Z</time>
      </trkpt>
      <trkpt lat="47.06115" lon="4.68499">
        <ele>454</ele>
        <time>2021-03-13T01:18:33Z</time>
      </trkpt>
      <trkpt lat="47.06104" lon="4.68641">
        <ele>448</ele>
        <time>2021-03-13T01:20:43Z</time>
      </trkpt>
      <trkpt lat="47.06153" lon="4.68869">
        <ele>436</ele>
        <time>2021-03-13T01:24:21Z</time>
      </trkpt>
      <trkpt lat="47.06136" lon="4.68925">
        <ele>434</ele>
        <time>2021-03-13T01:25:16Z</time>
      </trkpt>
      <trkpt lat="47.06073" lon="4.68991">
        <ele>437</ele>
        <time>2021-03-13T01:27:00Z</time>
      </trkpt>
      <trkpt lat="47.06078" lon="4.69175">
        <ele>445</ele>
        <time>2021-03-13T01:29:47Z</time>
      </trkpt>
      <trkpt lat="47.06146" lon="4.69445">
        <ele>454</ele>
        <time>2021-03-13T01:34:09Z</time>
      </trkpt>
      <trkpt lat="47.06099" lon="4.6956">
        <ele>456</ele>
        <time>2021-03-13T01:36:11Z</time>
      </trkpt>
      <trkpt lat="47.06037" lon="4.6968">
        <ele>458</ele>
        <time>2021-03-13T01:38:28Z</time>
      </trkpt>
      <trkpt lat="47.06021" lon="4.69803">
        <ele>462</ele>
        <time>2021-03-13T01:40:21Z</time>
      </trkpt>
      <trkpt lat="47.06101" lon="4.70178">
        <ele>470</ele>
        <time>2021-03-13T01:46:19Z</time>
      </trkpt>
      <trkpt lat="47.06167" lon="4.70326">
        <ele>472</ele>
        <time>2021-03-13T01:48:59Z</time>
      </trkpt>
      <trkpt lat="47.06111" lon="4.7044">
        <ele>466</ele>
        <time>2021-03-13T01:51:07Z</time>
      </trkpt>
      <trkpt lat="47.06078" lon="4.70476">
        <ele>466</ele>
        <time>2021-03-13T01:52:02Z</time>
      </trkpt>
      <trkpt lat="47.0596" lon="4.70458">
        <ele>473</ele>
        <time>2021-03-13T01:54:40Z</time>
      </trkpt>
      <trkpt lat="47.05812" lon="4.70502">
        <ele>477</ele>
        <time>2021-03-13T01:58:02Z</time>
      </trkpt>
      <trkpt lat="47.05548" lon="4.70627">
        <ele>486</ele>
        <time>2021-03-13T02:04:12Z</time>
      </trkpt>
      <trkpt lat="47.05498" lon="4.70662">
        <ele>489</ele>
        <time>2021-03-13T02:05:26Z</time>
      </trkpt>
      <trkpt lat="47.05305" lon="4.70642">
        <ele>489</ele>
        <time>2021-03-13T02:09:44Z</time>
      </trkpt>
      <trkpt lat="47.05238" lon="4.70616">
        <ele>487</ele>
        <time>2021-03-13T02:11:17Z</time>
      </trkpt>
      <trkpt lat="47.05004" lon="4.70483">
        <ele>490</ele>
        <time>2021-03-13T02:16:51Z</time>
      </trkpt>
      <trkpt lat="47.04904" lon="4.7047">
        <ele>492</ele>
        <time>2021-03-13T02:19:05Z</time>
      </trkpt>
      <trkpt lat="47.04667" lon="4.70449">
        <ele>499</ele>
        <time>2021-03-13T02:24:22Z</time>
      </trkpt>
      <trkpt lat="47.04521" lon="4.70496">
        <ele>504</ele>
        <time>2021-03-13T02:27:42Z</time>
      </trkpt>
      <trkpt lat="47.04366" lon="4.70487">
        <ele>512</ele>
        <time>2021-03-13T02:31:09Z</time>
      </trkpt>
      <trkpt lat="47.04232" lon="4.70844">
        <ele>522</ele>
        <time>2021-03-13T02:37:19Z</time>
      </trkpt>
      <trkpt lat="47.04229" lon="4.70977">
        <ele>525</ele>
        <time>2021-03-13T02:39:20Z</time>
      </trkpt>
      <trkpt lat="47.0408" lon="4.71195">
        <ele>534</ele>
        <time>2021-03-13T02:44:01Z</time>
      </trkpt>
      <trkpt lat="47.03995" lon="4.71496">
        <ele>543</ele>
        <time>2021-03-13T02:48:57Z</time>
      </trkpt>
      <trkpt lat="47.03907" lon="4.7159">
        <ele>543</ele>
        <time>2021-03-13T02:51:23Z</time>
      </trkpt>
      <trkpt lat="47.03802" lon="4.71616">
        <ele>545</ele>
        <time>2021-03-13T02:53:45Z</time>
      </trkpt>
      <trkpt lat="47.03717" lon="4.71779">
        <ele>550</ele>
        <time>2021-03-13T02:56:51Z</time>
      </trkpt>
      <trkpt lat="47.03634" lon="4.7182">
        <ele>546</ele>
        <time>2021-03-13T02:58:48Z</time>
      </trkpt>
      <trkpt lat="47.0366" lon="4.71882">
        <ele>548</ele>
        <time>2021-03-13T02:59:55Z</time>
      </trkpt>
      <trkpt lat="47.03696" lon="4.71982">
        <ele>550</ele>
        <time>2021-03-13T03:01:37Z</time>
      </trkpt>
      <trkpt lat="47.03732" lon="4.72033">
        <ele>552</ele>
        <time>2021-03-13T03:02:44Z</time>
      </trkpt>
      <trkpt lat="47.03834" lon="4.72213">
        <ele>558</ele>
        <time>2021-03-13T03:06:17Z</time>
      </trkpt>
      <trkpt lat="47.03873" lon="4.72237">
        <ele>558</ele>
        <time>2021-03-13T03:07:14Z</time>
      </trkpt>
      <trkpt lat="47.03873" lon="4.72238">
        <ele>558</ele>
        <time>2021-03-13T03:07:14Z</time>
      </trkpt>
      <trkpt lat="47.03872" lon="4.7224">
        <ele>558</ele>
        <time>2021-03-13T03:07:17Z</time>
      </trkpt>
      <trkpt lat="47.03875" lon="4.72246">
        <ele>558</ele>
        <time>2021-03-13T03:07:23Z</time>
      </trkpt>
      <trkpt lat="47.03887" lon="4.7229">
        <ele>555</ele>
        <time>2021-03-13T03:08:07Z</time>
      </trkpt>
      <trkpt lat="47.03896" lon="4.72314">
        <ele>554</ele>
        <time>2021-03-13T03:08:31Z</time>
      </trkpt>
      <trkpt lat="47.03943" lon="4.72343">
        <ele>556</ele>
        <time>2021-03-13T03:09:40Z</time>
      </trkpt>
      <trkpt lat="47.03897" lon="4.72312">
        <ele>554</ele>
        <time>2021-03-13T03:10:47Z</time>
      </trkpt>
      <trkpt lat="47.03878" lon="4.7225">
        <ele>558</ele>
        <time>2021-03-13T03:11:49Z</time>
      </trkpt>
      <trkpt lat="47.0382" lon="4.72186">
        <ele>556</ele>
        <time>2021-03-13T03:13:26Z</time>
      </trkpt>
      <trkpt lat="47.0369" lon="4.71964">
        <ele>550</ele>
        <time>2021-03-13T03:17:52Z</time>
      </trkpt>
      <trkpt lat="47.03661" lon="4.71878">
        <ele>548</ele>
        <time>2021-03-13T03:19:19Z</time>
      </trkpt>
      <trkpt lat="47.03603" lon="4.71758">
        <ele>544</ele>
        <time>2021-03-13T03:21:33Z</time>
      </trkpt>
      <trkpt lat="47.03593" lon="4.71678">
        <ele>543</ele>
        <time>2021-03-13T03:22:47Z</time>
      </trkpt>
      <trkpt lat="47.0362" lon="4.71503">
        <ele>538</ele>
        <time>2021-03-13T03:25:30Z</time>
      </trkpt>
      <trkpt lat="47.03636" lon="4.71309">
        <ele>533</ele>
        <time>2021-03-13T03:28:28Z</time>
      </trkpt>
      <trkpt lat="47.03623" lon="4.71189">
        <ele>526</ele>
        <time>2021-03-13T03:30:18Z</time>
      </trkpt>
      <trkpt lat="47.0363" lon="4.71126">
        <ele>527</ele>
        <time>2021-03-13T03:31:16Z</time>
      </trkpt>
      <trkpt lat="47.03643" lon="4.7106">
        <ele>531</ele>
        <time>2021-03-13T03:32:19Z</time>
      </trkpt>
      <trkpt lat="47.03652" lon="4.70976">
        <ele>535</ele>
        <time>2021-03-13T03:33:36Z</time>
      </trkpt>
      <trkpt lat="47.03637" lon="4.70899">
        <ele>536</ele>
        <time>2021-03-13T03:34:49Z</time>
      </trkpt>
      <trkpt lat="47.03648" lon="4.70739">
        <ele>540</ele>
        <time>2021-03-13T03:37:15Z</time>
      </trkpt>
      <trkpt lat="47.03653" lon="4.70634">
        <ele>540</ele>
        <time>2021-03-13T03:38:51Z</time>
      </trkpt>
      <trkpt lat="47.03651" lon="4.70471">
        <ele>537</ele>
        <time>2021-03-13T03:41:19Z</time>
      </trkpt>
      <trkpt lat="47.03651" lon="4.7039">
        <ele>535</ele>
        <time>2021-03-13T03:42:33Z</time>
      </trkpt>
      <trkpt lat="47.03672" lon="4.70296">
        <ele>532</ele>
        <time>2021-03-13T03:44:03Z</time>
      </trkpt>
      <trkpt lat="47.03689" lon="4.7022">
        <ele>529</ele>
        <time>2021-03-13T03:45:16Z</time>
      </trkpt>
      <trkpt lat="47.03726" lon="4.70046">
        <ele>523</ele>
        <time>2021-03-13T03:48:02Z</time>
      </trkpt>
      <trkpt lat="47.03716" lon="4.6994">
        <ele>519</ele>
        <time>2021-03-13T03:49:39Z</time>
      </trkpt>
      <trkpt lat="47.03725" lon="4.69861">
        <ele>516</ele>
        <time>2021-03-13T03:50:52Z</time>
      </trkpt>
      <trkpt lat="47.03815" lon="4.69678">
        <ele>506</ele>
        <time>2021-03-13T03:54:17Z</time>
      </trkpt>
      <trkpt lat="47.03857" lon="4.69611">
        <ele>502</ele>
        <time>2021-03-13T03:55:40Z</time>
      </trkpt>
      <trkpt lat="47.03892" lon="4.69509">
        <ele>498</ele>
        <time>2021-03-13T03:57:24Z</time>
      </trkpt>
      <trkpt lat="47.03908" lon="4.69471">
        <ele>497</ele>
        <time>2021-03-13T03:58:04Z</time>
      </trkpt>
      <trkpt lat="47.03958" lon="4.69436">
        <ele>494</ele>
        <time>2021-03-13T03:59:18Z</time>
      </trkpt>
      <trkpt lat="47.04077" lon="4.6938">
        <ele>487</ele>
        <time>2021-03-13T04:02:05Z</time>
      </trkpt>
      <trkpt lat="47.04103" lon="4.69346">
        <ele>486</ele>
        <time>2021-03-13T04:02:51Z</time>
      </trkpt>
      <trkpt lat="47.04128" lon="4.6924">
        <ele>481</ele>
        <time>2021-03-13T04:04:33Z</time>
      </trkpt>
      <trkpt lat="47.04167" lon="4.69144">
        <ele>472</ele>
        <time>2021-03-13T04:06:15Z</time>
      </trkpt>
      <trkpt lat="47.04165" lon="4.69095">
        <ele>470</ele>
        <time>2021-03-13T04:07:00Z</time>
      </trkpt>
      <trkpt lat="47.04142" lon="4.69034">
        <ele>468</ele>
        <time>2021-03-13T04:08:03Z</time>
      </trkpt>
      <trkpt lat="47.04132" lon="4.68986">
        <ele>466</ele>
        <time>2021-03-13T04:08:49Z</time>
      </trkpt>
      <trkpt lat="47.04124" lon="4.68934">
        <ele>466</ele>
        <time>2021-03-13T04:09:37Z</time>
      </trkpt>
      <trkpt lat="47.04097" lon="4.68904">
        <ele>466</ele>
        <time>2021-03-13T04:10:22Z</time>
      </trkpt>
      <trkpt lat="47.04092" lon="4.6884">
        <ele>467</ele>
        <time>2021-03-13T04:11:21Z</time>
      </trkpt>
      <trkpt lat="47.0405" lon="4.68765">
        <ele>468</ele>
        <time>2021-03-13T04:12:49Z</time>
      </trkpt>
      <trkpt lat="47.03977" lon="4.68684">
        <ele>467</ele>
        <time>2021-03-13T04:14:51Z</time>
      </trkpt>
      <trkpt lat="47.03915" lon="4.68632">
        <ele>468</ele>
        <time>2021-03-13T04:16:27Z</time>
      </trkpt>
      <trkpt lat="47.03863" lon="4.68593">
        <ele>466</ele>
        <time>2021-03-13T04:17:45Z</time>
      </trkpt>
      <trkpt lat="47.03831" lon="4.68577">
        <ele>465</ele>
        <time>2021-03-13T04:18:30Z</time>
      </trkpt>
      <trkpt lat="47.03813" lon="4.68566">
        <ele>467</ele>
        <time>2021-03-13T04:18:56Z</time>
      </trkpt>
      <trkpt lat="47.03784" lon="4.68551">
        <ele>469</ele>
        <time>2021-03-13T04:19:37Z</time>
      </trkpt>
      <trkpt lat="47.03735" lon="4.68533">
        <ele>470</ele>
        <time>2021-03-13T04:20:44Z</time>
      </trkpt>
      <trkpt lat="47.03677" lon="4.6853">
        <ele>472</ele>
        <time>2021-03-13T04:22:02Z</time>
      </trkpt>
      <trkpt lat="47.03649" lon="4.68545">
        <ele>472</ele>
        <time>2021-03-13T04:22:41Z</time>
      </trkpt>
      <trkpt lat="47.0361" lon="4.68592">
        <ele>471</ele>
        <time>2021-03-13T04:23:49Z</time>
      </trkpt>
      <trkpt lat="47.03578" lon="4.68597">
        <ele>471</ele>
        <time>2021-03-13T04:24:32Z</time>
      </trkpt>
      <trkpt lat="47.03545" lon="4.6856">
        <ele>474</ele>
        <time>2021-03-13T04:25:27Z</time>
      </trkpt>
      <trkpt lat="47.03535" lon="4.68522">
        <ele>476</ele>
        <time>2021-03-13T04:26:04Z</time>
      </trkpt>
      <trkpt lat="47.03529" lon="4.68458">
        <ele>477</ele>
        <time>2021-03-13T04:27:03Z</time>
      </trkpt>
      <trkpt lat="47.03523" lon="4.68381">
        <ele>478</ele>
        <time>2021-03-13T04:28:13Z</time>
      </trkpt>
      <trkpt lat="47.03531" lon="4.68355">
        <ele>480</ele>
        <time>2021-03-13T04:28:39Z</time>
      </trkpt>
      <trkpt lat="47.03494" lon="4.68336">
        <ele>475</ele>
        <time>2021-03-13T04:29:32Z</time>
      </trkpt>
      <trkpt lat="47.03483" lon="4.68321">
        <ele>476</ele>
        <time>2021-03-13T04:29:52Z</time>
      </trkpt>
      <trkpt lat="47.03484" lon="4.68289">
        <ele>476</ele>
        <time>2021-03-13T04:30:21Z</time>
      </trkpt>
      <trkpt lat="47.03453" lon="4.68244">
        <ele>477</ele>
        <time>2021-03-13T04:31:19Z</time>
      </trkpt>
      <trkpt lat="47.03384" lon="4.68058">
        <ele>480</ele>
        <time>2021-03-13T04:34:32Z</time>
      </trkpt>
      <trkpt lat="47.03313" lon="4.67792">
        <ele>486</ele>
        <time>2021-03-13T04:38:51Z</time>
      </trkpt>
      <trkpt lat="47.03307" lon="4.67602">
        <ele>489</ele>
        <time>2021-03-13T04:41:44Z</time>
      </trkpt>
      <trkpt lat="47.03264" lon="4.67488">
        <ele>487</ele>
        <time>2021-03-13T04:43:43Z</time>
      </trkpt>
      <trkpt lat="47.03176" lon="4.67395">
        <ele>487</ele>
        <time>2021-03-13T04:46:08Z</time>
      </trkpt>
      <trkpt lat="47.03082" lon="4.67431">
        <ele>486</ele>
        <time>2021-03-13T04:48:17Z</time>
      </trkpt>
      <trkpt lat="47.03035" lon="4.67483">
        <ele>488</ele>
        <time>2021-03-13T04:49:36Z</time>
      </trkpt>
      <trkpt lat="47.02988" lon="4.67528">
        <ele>491</ele>
        <time>2021-03-13T04:50:51Z</time>
      </trkpt>
      <trkpt lat="47.02936" lon="4.67518">
        <ele>487</ele>
        <time>2021-03-13T04:52:01Z</time>
      </trkpt>
      <trkpt lat="47.02888" lon="4.67482">
        <ele>486</ele>
        <time>2021-03-13T04:53:13Z</time>
      </trkpt>
      <trkpt lat="47.02734" lon="4.67513">
        <ele>492</ele>
        <time>2021-03-13T04:56:40Z</time>
      </trkpt>
      <trkpt lat="47.02722" lon="4.67932">
        <ele>507</ele>
        <time>2021-03-13T05:03:02Z</time>
      </trkpt>
      <trkpt lat="47.02567" lon="4.68271">
        <ele>517</ele>
        <time>2021-03-13T05:09:13Z</time>
      </trkpt>
      <trkpt lat="47.02407" lon="4.68814">
        <ele>512</ele>
        <time>2021-03-13T05:18:11Z</time>
      </trkpt>
      <trkpt lat="47.02254" lon="4.68693">
        <ele>515</ele>
        <time>2021-03-13T05:22:03Z</time>
      </trkpt>
      <trkpt lat="47.01687" lon="4.68934">
        <ele>529</ele>
        <time>2021-03-13T05:35:11Z</time>
      </trkpt>
      <trkpt lat="47.0063" lon="4.69028">
        <ele>520</ele>
        <time>2021-03-13T05:58:44Z</time>
      </trkpt>
      <trkpt lat="47.00557" lon="4.69311">
        <ele>522</ele>
        <time>2021-03-13T06:03:19Z</time>
      </trkpt>
      <trkpt lat="47.00256" lon="4.68985">
        <ele>526</ele>
        <time>2021-03-13T06:11:39Z</time>
      </trkpt>
      <trkpt lat="46.99673" lon="4.69187">
        <ele>539</ele>
        <time>2021-03-13T06:24:58Z</time>
      </trkpt>
      <trkpt lat="46.99539" lon="4.68878">
        <ele>530</ele>
        <time>2021-03-13T06:30:31Z</time>
      </trkpt>
      <trkpt lat="46.99275" lon="4.6929">
        <ele>530</ele>
        <time>2021-03-13T06:39:06Z</time>
      </trkpt>
      <trkpt lat="46.99211" lon="4.69273">
        <ele>532</ele>
        <time>2021-03-13T06:40:33Z</time>
      </trkpt>
    </trkseg>
  </trk>
</gpx>